createdAt,value
2022-08-08T00:00:56.163Z,23.23
2022-08-08T00:03:53.217Z,23.19
2022-08-08T00:06:50.819Z,23.14
2022-08-08T00:10:00.429Z,23.14
2022-08-08T00:13:00.046Z,23.11
2022-08-08T00:16:00.120Z,23.09
2022-08-08T00:19:05.378Z,23.07
2022-08-08T00:22:05.875Z,23.02
2022-08-08T00:25:08.511Z,22.99
2022-08-08T00:28:00.087Z,22.97
2022-08-08T00:31:00.725Z,22.92
2022-08-08T00:34:34.992Z,22.91
2022-08-08T00:37:47.765Z,22.88
2022-08-08T00:41:12.078Z,22.86
2022-08-08T00:44:16.453Z,22.83
2022-08-08T00:47:04.492Z,22.81
2022-08-08T00:50:24.828Z,22.82
2022-08-08T00:53:15.543Z,22.79
2022-08-08T00:56:21.590Z,22.76
2022-08-08T00:59:44.069Z,22.74
2022-08-08T01:03:59.237Z,22.72
2022-08-08T01:07:00.228Z,22.68
2022-08-08T01:10:24.873Z,22.68
2022-08-08T01:13:43.423Z,22.63
2022-08-08T01:16:51.639Z,22.62
2022-08-08T01:20:01.662Z,22.58
2022-08-08T01:24:05.343Z,22.57
2022-08-08T01:27:07.114Z,22.58
2022-08-08T01:30:16.839Z,22.55
2022-08-08T01:33:23.798Z,22.53
2022-08-08T01:36:19.183Z,22.51
2022-08-08T01:39:28.115Z,22.50
2022-08-08T01:42:36.336Z,22.47
2022-08-08T01:46:03.169Z,22.46
2022-08-08T01:49:23.336Z,22.46
2022-08-08T01:54:05.838Z,22.44
2022-08-08T01:56:28.946Z,22.40
2022-08-08T01:59:38.250Z,22.39
2022-08-08T02:02:57.024Z,22.37
2022-08-08T02:06:32.589Z,22.35
2022-08-08T02:10:03.880Z,22.32
2022-08-08T02:13:05.072Z,22.34
2022-08-08T02:15:57.192Z,22.31
2022-08-08T02:18:58.716Z,22.27
2022-08-08T02:22:28.429Z,22.27
2022-08-08T02:25:46.806Z,22.27
2022-08-08T02:28:54.566Z,22.25
2022-08-08T02:32:05.495Z,22.27
2022-08-08T02:35:08.488Z,22.26
2022-08-08T02:38:36.053Z,22.24
2022-08-08T02:42:03.373Z,22.21
2022-08-08T02:45:21.445Z,22.21
2022-08-08T02:48:40.904Z,22.19
2022-08-08T02:52:03.192Z,22.18
2022-08-08T02:55:20.538Z,22.17
2022-08-08T02:58:10.809Z,22.15
2022-08-08T03:01:32.709Z,22.15
2022-08-08T03:05:10.893Z,22.16
2022-08-08T03:08:32.753Z,22.13
2022-08-08T03:12:01.801Z,22.10
2022-08-08T03:16:00.167Z,22.11
2022-08-08T03:18:54.287Z,22.09
2022-08-08T03:21:58.587Z,22.07
2022-08-08T03:24:47.336Z,22.05
2022-08-08T03:27:45.210Z,22.03
2022-08-08T03:30:34.742Z,22.00
2022-08-08T03:33:54.880Z,22.00
2022-08-08T03:36:31.471Z,22.00
2022-08-08T03:39:20.233Z,21.97
2022-08-08T03:42:27.145Z,21.97
2022-08-08T03:46:06.289Z,21.97
2022-08-08T03:49:09.755Z,21.97
2022-08-08T03:51:40.460Z,21.97
2022-08-08T03:54:41.399Z,21.95
2022-08-08T03:58:35.299Z,21.95
2022-08-08T04:01:01.530Z,21.92
2022-08-08T04:03:57.283Z,21.89
2022-08-08T04:06:56.253Z,21.91
2022-08-08T04:10:00.831Z,21.90
2022-08-08T04:12:53.775Z,21.89
2022-08-08T04:15:39.243Z,21.88
2022-08-08T04:18:44.830Z,21.87
2022-08-08T04:21:41.325Z,21.87
2022-08-08T04:24:31.415Z,21.86
2022-08-08T04:28:01.543Z,21.83
2022-08-08T04:30:27.256Z,21.85
2022-08-08T04:33:15.431Z,21.84
2022-08-08T04:36:01.285Z,21.84
2022-08-08T04:38:47.467Z,21.83
2022-08-08T04:41:36.511Z,21.82
2022-08-08T04:44:23.170Z,21.82
2022-08-08T04:47:12.636Z,21.82
2022-08-08T04:50:04.645Z,21.79
2022-08-08T04:52:58.515Z,21.77
2022-08-08T04:55:55.943Z,21.77
2022-08-08T04:58:46.133Z,21.76
2022-08-08T05:01:35.733Z,21.75
2022-08-08T05:04:35.559Z,21.75
2022-08-08T05:07:21.448Z,21.75
2022-08-08T05:10:08.295Z,21.75
2022-08-08T05:13:01.710Z,21.76
2022-08-08T05:16:55.079Z,21.75
2022-08-08T05:18:56.410Z,21.77
2022-08-08T05:21:59.489Z,21.76
2022-08-08T05:24:48.628Z,21.74
2022-08-08T05:27:41.309Z,21.72
2022-08-08T05:30:27.953Z,21.75
2022-08-08T05:33:16.834Z,21.75
2022-08-08T05:36:05.054Z,21.75
2022-08-08T05:38:51.805Z,21.75
2022-08-08T05:41:54.821Z,21.75
2022-08-08T05:44:49.065Z,21.74
2022-08-08T05:47:52.474Z,21.76
2022-08-08T05:50:45.284Z,21.76
2022-08-08T05:54:26.365Z,21.76
2022-08-08T05:56:41.939Z,21.76
2022-08-08T06:00:00.049Z,21.77
2022-08-08T06:03:07.334Z,21.78
2022-08-08T06:06:07.825Z,21.80
2022-08-08T06:09:58.361Z,21.83
2022-08-08T06:12:09.305Z,21.88
2022-08-08T06:15:03.115Z,21.93
2022-08-08T06:18:18.576Z,21.96
2022-08-08T06:21:03.687Z,22.01
2022-08-08T06:24:13.716Z,22.05
2022-08-08T06:27:11.181Z,22.10
2022-08-08T06:30:11.812Z,22.14
2022-08-08T06:33:13.175Z,22.18
2022-08-08T06:36:07.348Z,22.20
2022-08-08T06:38:58.939Z,22.19
2022-08-08T06:41:56.397Z,22.18
2022-08-08T06:44:51.076Z,22.20
2022-08-08T06:47:52.488Z,22.21
2022-08-08T06:50:45.253Z,22.24
2022-08-08T06:53:39.374Z,22.25
2022-08-08T06:56:30.958Z,22.28
2022-08-08T06:59:17.291Z,22.28
2022-08-08T07:02:26.814Z,22.27
2022-08-08T07:05:20.510Z,22.27
2022-08-08T07:08:10.519Z,22.29
2022-08-08T07:11:01.797Z,22.31
2022-08-08T07:14:00.766Z,22.34
2022-08-08T07:17:09.363Z,22.45
2022-08-08T07:20:07.899Z,22.49
2022-08-08T07:23:03.103Z,22.50
2022-08-08T07:25:54.749Z,22.52
2022-08-08T07:28:43.903Z,22.56
2022-08-08T07:31:35.486Z,22.51
2022-08-08T07:34:26.987Z,22.52
2022-08-08T07:37:22.768Z,22.52
2022-08-08T07:40:10.496Z,22.53
2022-08-08T07:43:08.855Z,22.57
2022-08-08T07:46:17.645Z,22.60
2022-08-08T07:49:06.781Z,22.57
2022-08-08T07:51:54.127Z,22.59
2022-08-08T07:54:56.843Z,22.60
2022-08-08T07:58:09.572Z,22.61
2022-08-08T08:01:07.336Z,22.63
2022-08-08T08:04:05.741Z,22.65
2022-08-08T08:07:00.583Z,22.63
2022-08-08T08:09:46.405Z,22.65
2022-08-08T08:12:43.039Z,22.63
2022-08-08T08:15:32.402Z,22.64
2022-08-08T08:18:31.866Z,22.63
2022-08-08T08:21:20.281Z,22.63
2022-08-08T08:24:32.261Z,22.63
2022-08-08T08:27:22.189Z,22.60
2022-08-08T08:30:12.909Z,22.58
2022-08-08T08:32:59.253Z,22.55
2022-08-08T08:36:19.150Z,22.56
2022-08-08T08:38:53.767Z,22.57
2022-08-08T08:41:48.686Z,22.57
2022-08-08T08:44:34.929Z,22.58
2022-08-08T08:47:24.060Z,22.61
2022-08-08T08:50:31.739Z,22.61
2022-08-08T08:53:55.277Z,22.61
2022-08-08T08:56:32.294Z,22.66
2022-08-08T08:59:58.582Z,22.69
2022-08-08T09:02:41.155Z,22.68
2022-08-08T09:05:54.368Z,22.73
2022-08-08T09:08:39.318Z,22.78
2022-08-08T09:11:26.581Z,22.77
2022-08-08T09:14:25.806Z,22.76
2022-08-08T09:17:18.942Z,22.79
2022-08-08T09:21:59.852Z,22.81
2022-08-08T09:23:17.595Z,22.82
2022-08-08T09:26:22.100Z,22.84
2022-08-08T09:29:09.603Z,22.87
2022-08-08T09:32:14.316Z,22.88
2022-08-08T09:35:08.916Z,22.90
2022-08-08T09:38:02.574Z,22.92
2022-08-08T09:41:03.319Z,22.95
2022-08-08T09:44:06.342Z,22.97
2022-08-08T09:47:05.233Z,23.00
2022-08-08T09:50:13.754Z,22.98
2022-08-08T09:53:24.463Z,22.99
2022-08-08T09:56:12.625Z,23.00
2022-08-08T09:59:39.538Z,23.02
2022-08-08T10:02:28.754Z,23.08
2022-08-08T10:05:26.120Z,23.11
2022-08-08T10:08:12.084Z,23.12
2022-08-08T10:10:59.948Z,23.14
2022-08-08T10:14:01.347Z,23.15
2022-08-08T10:16:56.079Z,23.18
2022-08-08T10:19:57.950Z,23.18
2022-08-08T10:23:01.809Z,23.21
2022-08-08T10:25:57.352Z,23.25
2022-08-08T10:28:55.741Z,23.31
2022-08-08T10:32:00.701Z,23.34
2022-08-08T10:34:57.019Z,23.31
2022-08-08T10:38:00.066Z,23.34
2022-08-08T10:40:51.936Z,23.36
2022-08-08T10:43:40.350Z,23.37
2022-08-08T10:46:34.233Z,23.35
2022-08-08T10:49:26.817Z,23.36
2022-08-08T10:52:33.323Z,23.38
2022-08-08T10:55:40.917Z,23.39
2022-08-08T10:58:31.241Z,23.37
2022-08-08T11:01:22.808Z,23.39
2022-08-08T11:04:11.739Z,23.43
2022-08-08T11:07:01.506Z,23.49
2022-08-08T11:09:47.237Z,23.54
2022-08-08T11:12:45.738Z,23.54
2022-08-08T11:15:34.392Z,23.53
2022-08-08T11:18:39.932Z,23.52
2022-08-08T11:21:35.277Z,23.54
2022-08-08T11:24:22.362Z,23.56
2022-08-08T11:27:19.894Z,23.57
2022-08-08T11:30:20.092Z,23.58
2022-08-08T11:33:12.429Z,23.62
2022-08-08T11:35:58.384Z,23.62
2022-08-08T11:38:54.635Z,23.59
2022-08-08T11:41:43.212Z,23.58
2022-08-08T11:44:30.863Z,23.60
2022-08-08T11:47:17.546Z,23.57
2022-08-08T11:50:12.209Z,23.55
2022-08-08T11:52:58.930Z,23.58
2022-08-08T11:55:49.735Z,23.59
2022-08-08T11:58:37.658Z,23.58
2022-08-08T12:01:32.681Z,23.63
2022-08-08T12:04:22.358Z,23.66
2022-08-08T12:07:17.250Z,23.67
2022-08-08T12:10:14.968Z,23.63
2022-08-08T12:13:12.116Z,23.64
2022-08-08T12:16:19.653Z,23.66
2022-08-08T12:19:12.166Z,23.70
2022-08-08T12:22:09.429Z,23.69
2022-08-08T12:25:00.944Z,23.72
2022-08-08T12:27:48.981Z,23.74
2022-08-08T12:30:36.288Z,23.73
2022-08-08T12:33:37.122Z,23.75
2022-08-08T12:36:23.675Z,23.78
2022-08-08T12:40:01.070Z,23.80
2022-08-08T12:42:33.527Z,23.83
2022-08-08T12:45:59.969Z,23.84
2022-08-08T12:48:36.530Z,23.87
2022-08-08T12:51:23.649Z,23.84
2022-08-08T12:54:36.984Z,23.83
2022-08-08T12:57:25.967Z,23.79
2022-08-08T13:00:14.627Z,23.78
2022-08-08T13:03:05.438Z,23.76
2022-08-08T13:06:10.434Z,23.79
2022-08-08T13:09:10.505Z,23.80
2022-08-08T13:12:24.568Z,23.83
2022-08-08T13:15:05.718Z,23.86
2022-08-08T13:17:53.988Z,23.86
2022-08-08T13:20:56.229Z,23.86
2022-08-08T13:23:46.852Z,23.86
2022-08-08T13:26:33.349Z,23.85
2022-08-08T13:29:19.016Z,23.85
2022-08-08T13:32:07.247Z,23.85
2022-08-08T13:34:58.042Z,23.87
2022-08-08T13:38:04.687Z,23.89
2022-08-08T13:40:52.494Z,23.88
2022-08-08T13:43:38.081Z,23.85
2022-08-08T13:46:28.714Z,23.89
2022-08-08T13:50:39.419Z,23.90
2022-08-08T13:52:37.824Z,23.85
2022-08-08T13:55:28.934Z,23.88
2022-08-08T13:58:22.525Z,23.99
2022-08-08T14:01:19.012Z,23.98
2022-08-08T14:04:08.668Z,24.00
2022-08-08T14:07:04.563Z,24.00
2022-08-08T14:10:05.883Z,23.97
2022-08-08T14:12:56.334Z,23.96
2022-08-08T14:15:46.382Z,23.95
2022-08-08T14:18:53.388Z,23.94
2022-08-08T14:21:48.781Z,23.92
2022-08-08T14:24:37.981Z,23.92
2022-08-08T14:27:29.841Z,23.93
2022-08-08T14:30:18.964Z,23.90
2022-08-08T14:33:12.799Z,23.90
2022-08-08T14:36:02.236Z,23.96
2022-08-08T14:38:52.689Z,24.10
2022-08-08T14:41:45.395Z,24.24
2022-08-08T14:44:39.736Z,24.16
2022-08-08T14:47:26.045Z,24.13
2022-08-08T14:50:21.367Z,24.14
2022-08-08T14:53:23.778Z,24.17
2022-08-08T14:56:11.680Z,24.21
2022-08-08T14:58:57.705Z,24.24
2022-08-08T15:01:49.739Z,24.20
2022-08-08T15:04:37.218Z,24.21
2022-08-08T15:07:36.814Z,24.16
2022-08-08T15:10:25.130Z,24.16
2022-08-08T15:13:14.802Z,24.16
2022-08-08T15:16:02.690Z,24.22
2022-08-08T15:18:51.220Z,24.25
2022-08-08T15:21:37.789Z,24.27
2022-08-08T15:24:31.367Z,24.27
2022-08-08T15:28:04.585Z,24.27
2022-08-08T15:30:22.783Z,24.31
2022-08-08T15:33:08.974Z,24.24
2022-08-08T15:35:54.115Z,24.22
2022-08-08T15:38:40.629Z,24.25
2022-08-08T15:41:43.406Z,24.22
2022-08-08T15:44:29.973Z,24.22
2022-08-08T15:47:18.811Z,24.24
2022-08-08T15:50:10.518Z,24.23
2022-08-08T15:53:05.276Z,24.25
2022-08-08T15:55:52.448Z,24.23
2022-08-08T15:58:38.315Z,24.26
2022-08-08T16:01:40.680Z,24.25
2022-08-08T16:04:37.821Z,24.25
2022-08-08T16:07:23.707Z,24.26
2022-08-08T16:13:15.848Z,24.23
2022-08-08T16:13:44.917Z,24.18
2022-08-08T16:16:31.081Z,24.22
2022-08-08T16:19:19.742Z,24.20
2022-08-08T16:22:09.720Z,24.20
2022-08-08T16:25:16.056Z,24.18
2022-08-08T16:28:01.956Z,24.20
2022-08-08T16:30:47.981Z,24.23
2022-08-08T16:33:38.496Z,24.25
2022-08-08T16:36:33.548Z,24.22
2022-08-08T16:39:48.887Z,24.23
2022-08-08T16:42:26.303Z,24.23
2022-08-08T16:46:36.126Z,24.25
2022-08-08T16:48:18.863Z,24.22
2022-08-08T16:51:04.232Z,24.27
2022-08-08T16:55:23.251Z,24.23
2022-08-08T16:57:03.578Z,24.22
2022-08-08T17:00:09.600Z,24.24
2022-08-08T17:02:55.880Z,24.23
2022-08-08T17:05:44.955Z,24.23
2022-08-08T17:08:32.474Z,24.22
2022-08-08T17:11:18.445Z,24.22
2022-08-08T17:14:05.538Z,24.20
2022-08-08T17:17:05.327Z,24.22
2022-08-08T17:19:50.900Z,24.19
2022-08-08T17:22:39.035Z,24.18
2022-08-08T17:25:41.678Z,24.13
2022-08-08T17:28:34.548Z,24.16
2022-08-08T17:31:44.451Z,24.16
2022-08-08T17:34:36.468Z,24.16
2022-08-08T17:37:34.880Z,24.12
2022-08-08T17:40:21.805Z,24.14
2022-08-08T17:43:07.233Z,24.17
2022-08-08T17:45:58.199Z,24.15
2022-08-08T17:48:47.845Z,24.16
2022-08-08T17:51:34.086Z,24.16
2022-08-08T17:54:22.338Z,24.12
2022-08-08T17:57:14.316Z,24.13
2022-08-08T18:00:01.632Z,24.12
2022-08-08T18:02:52.429Z,24.13
2022-08-08T18:05:55.854Z,24.13
2022-08-08T18:08:43.558Z,24.11
2022-08-08T18:11:30.963Z,24.10
2022-08-08T18:14:22.620Z,24.10
2022-08-08T18:17:17.292Z,24.05
2022-08-08T18:20:37.053Z,24.09
2022-08-08T18:23:12.558Z,24.06
2022-08-08T18:26:01.408Z,24.06
2022-08-08T18:28:54.192Z,24.04
2022-08-08T18:31:40.658Z,24.04
2022-08-08T18:34:27.846Z,24.04
2022-08-08T18:37:17.684Z,24.01
2022-08-08T18:40:19.277Z,24.03
2022-08-08T18:43:20.810Z,24.02
2022-08-08T18:46:56.224Z,24.03
2022-08-08T18:49:14.842Z,24.06
2022-08-08T18:52:02.294Z,24.07
2022-08-08T18:55:00.316Z,24.06
2022-08-08T18:57:54.430Z,24.04
2022-08-08T19:00:40.419Z,24.03
2022-08-08T19:04:10.247Z,24.04
2022-08-08T19:06:38.244Z,24.02
2022-08-08T19:09:23.477Z,24.00
2022-08-08T19:12:29.543Z,23.98
2022-08-08T19:15:15.048Z,23.94
2022-08-08T19:18:33.616Z,23.99
2022-08-08T19:21:29.319Z,23.95
2022-08-08T19:24:34.093Z,23.92
2022-08-08T19:27:56.018Z,23.91
2022-08-08T19:30:31.177Z,23.89
2022-08-08T19:33:17.012Z,23.88
2022-08-08T19:36:07.871Z,23.85
2022-08-08T19:38:53.768Z,23.82
2022-08-08T19:41:40.276Z,23.82
2022-08-08T19:44:46.022Z,23.80
2022-08-08T19:47:34.034Z,23.79
2022-08-08T19:50:19.450Z,23.74
2022-08-08T19:53:51.220Z,23.72
2022-08-08T19:56:12.183Z,23.71
2022-08-08T19:58:58.376Z,23.67
2022-08-08T20:02:01.626Z,23.65
2022-08-08T20:04:49.325Z,23.65
2022-08-08T20:08:28.870Z,23.66
2022-08-08T20:10:42.520Z,23.64
2022-08-08T20:14:31.472Z,23.69
2022-08-08T20:16:38.909Z,23.69
2022-08-08T20:19:26.111Z,23.66
2022-08-08T20:22:20.669Z,23.63
2022-08-08T20:25:20.203Z,23.62
2022-08-08T20:28:07.533Z,23.59
2022-08-08T20:31:00.389Z,23.60
2022-08-08T20:34:27.162Z,23.59
2022-08-08T20:36:52.257Z,23.57
2022-08-08T20:39:41.490Z,23.55
2022-08-08T20:42:37.606Z,23.54
2022-08-08T20:45:55.245Z,23.52
2022-08-08T20:48:28.932Z,23.50
2022-08-08T20:51:14.290Z,23.50
2022-08-08T20:54:04.201Z,23.48
2022-08-08T20:57:04.733Z,23.46
2022-08-08T21:00:03.025Z,23.44
2022-08-08T21:02:52.956Z,23.45
2022-08-08T21:05:59.102Z,23.42
2022-08-08T21:08:49.361Z,23.40
2022-08-08T21:11:51.999Z,23.39
2022-08-08T21:14:42.833Z,23.37
2022-08-08T21:17:36.679Z,23.36
2022-08-08T21:20:22.210Z,23.34
2022-08-08T21:23:18.055Z,23.34
2022-08-08T21:26:03.624Z,23.31
2022-08-08T21:28:48.950Z,23.29
2022-08-08T21:31:58.490Z,23.29
2022-08-08T21:34:49.631Z,23.28
2022-08-08T21:37:53.648Z,23.28
2022-08-08T21:40:40.231Z,23.27
2022-08-08T21:43:42.200Z,23.25
2022-08-08T21:48:04.478Z,23.24
2022-08-08T21:49:39.537Z,23.23
2022-08-08T21:54:34.782Z,23.23
2022-08-08T21:56:18.245Z,23.20
2022-08-08T21:58:39.048Z,23.20
2022-08-08T22:01:40.602Z,23.19
2022-08-08T22:04:27.037Z,23.19
2022-08-08T22:07:13.492Z,23.16
2022-08-08T22:09:58.707Z,23.16
2022-08-08T22:12:44.340Z,23.17
2022-08-08T22:15:32.352Z,23.14
2022-08-08T22:18:20.205Z,23.13
2022-08-08T22:21:14.390Z,23.14
2022-08-08T22:24:02.152Z,23.13
2022-08-08T22:27:01.194Z,23.10
2022-08-08T22:29:59.682Z,23.09
2022-08-08T22:32:49.353Z,23.10
2022-08-08T22:36:04.529Z,23.09
2022-08-08T22:38:48.885Z,23.10
2022-08-08T22:41:34.882Z,23.07
2022-08-08T22:44:20.201Z,23.06
2022-08-08T22:47:17.475Z,23.05
2022-08-08T22:50:04.066Z,23.06
2022-08-08T22:53:01.556Z,23.04
2022-08-08T22:55:58.372Z,23.02
2022-08-08T22:58:46.878Z,23.03
2022-08-08T23:02:03.888Z,23.00
2022-08-08T23:04:55.976Z,23.00
2022-08-08T23:07:56.947Z,23.00
2022-08-08T23:10:43.274Z,22.99
2022-08-08T23:13:42.290Z,22.99
2022-08-08T23:16:43.749Z,22.99
2022-08-08T23:19:32.896Z,22.95
2022-08-08T23:22:19.267Z,22.96
2022-08-08T23:25:06.281Z,22.95
2022-08-08T23:27:54.352Z,22.94
2022-08-08T23:30:40.676Z,22.94
2022-08-08T23:34:15.227Z,22.94
2022-08-08T23:36:31.204Z,22.92
2022-08-08T23:39:16.678Z,22.93
2022-08-08T23:42:06.259Z,22.91
2022-08-08T23:44:53.190Z,22.89
2022-08-08T23:49:08.143Z,22.90
2022-08-08T23:50:45.980Z,22.90
2022-08-08T23:54:06.348Z,22.92
2022-08-08T23:56:46.808Z,22.88
2022-08-08T23:59:34.304Z,22.86
